Mount Pleasant, Texas
Current Conditions -  °F | °C
As of 8:15 AM on Saturday 22 Nov 2014 (Local Time) from KOSA Reporting Station
Overcast Overcast  
Wind Chill: 56°   Ceiling: 3600
Heat Index: 56°   Visibility: 10mi
Dew Point: 54°   Wind: 9mph
Humidity: 90%   Direction: 130°SE
Pressure: 30.14"   Gusts: NA
Location:  33.16°N, 94.97°W
Report Text: KOSA 221415Z AUTO 13008KT 10SM SCT023 OVC036 14/12 A3014 RMK AO1 T01360120
Loading
Personal Weather Stations






























Interactive Weather Map New forecast layout! Learn more

10-Day Weather Forecast

Advertisements
Track Severe Weather on mobile